createdAt,value
2022-08-19T00:01:44.170Z,18.30
2022-08-19T00:06:48.962Z,18.90
2022-08-19T00:11:53.578Z,19.60
2022-08-19T00:16:56.609Z,20.70
2022-08-19T00:22:00.368Z,20.20
2022-08-19T00:27:25.203Z,20.40
2022-08-19T00:32:27.254Z,19.20
2022-08-19T00:37:30.263Z,18.10
2022-08-19T00:42:33.802Z,19.30
2022-08-19T00:47:36.884Z,20.00
2022-08-19T00:52:46.548Z,20.00
2022-08-19T00:57:57.385Z,20.90
2022-08-19T01:03:00.519Z,20.50
2022-08-19T01:08:06.910Z,19.80
2022-08-19T01:13:11.601Z,21.60
2022-08-19T01:18:18.311Z,20.90
2022-08-19T01:23:21.461Z,22.80
2022-08-19T01:28:39.644Z,22.10
2022-08-19T01:33:43.990Z,21.10
2022-08-19T01:38:47.356Z,20.20
2022-08-19T01:44:13.890Z,22.20
2022-08-19T01:49:18.265Z,22.00
2022-08-19T01:54:27.912Z,21.90
2022-08-19T01:59:33.251Z,21.60
2022-08-19T02:04:39.174Z,22.00
2022-08-19T02:09:43.167Z,21.70
2022-08-19T02:14:46.181Z,21.50
2022-08-19T02:19:50.195Z,20.90
2022-08-19T02:24:55.272Z,21.80
2022-08-19T02:29:58.307Z,21.20
2022-08-19T02:35:01.363Z,21.70
2022-08-19T02:40:12.336Z,21.60
2022-08-19T02:45:16.105Z,21.90
2022-08-19T02:50:19.779Z,21.40
2022-08-19T02:55:22.854Z,20.70
2022-08-19T03:00:25.889Z,21.00
2022-08-19T03:05:48.161Z,22.10
2022-08-19T03:10:53.197Z,21.10
2022-08-19T03:15:56.386Z,21.50
2022-08-19T03:20:59.498Z,20.30
2022-08-19T03:26:16.518Z,20.50
2022-08-19T03:31:45.202Z,21.10
2022-08-19T03:36:48.423Z,20.70
2022-08-19T03:42:32.904Z,21.50
2022-08-19T03:47:20.150Z,20.90
2022-08-19T03:52:23.124Z,20.70
2022-08-19T03:57:27.848Z,21.10
2022-08-19T04:02:35.304Z,21.70
2022-08-19T04:07:38.354Z,21.70
2022-08-19T04:12:41.530Z,21.90
2022-08-19T04:17:44.560Z,21.80
2022-08-19T04:22:47.662Z,21.00
2022-08-19T04:27:51.051Z,21.20
2022-08-19T04:32:54.549Z,20.90
2022-08-19T04:37:57.809Z,21.00
2022-08-19T04:43:02.120Z,20.10
2022-08-19T04:48:19.737Z,20.70
2022-08-19T04:53:38.020Z,19.10
2022-08-19T05:03:46.989Z,19.50
2022-08-19T05:08:51.013Z,18.80
2022-08-19T05:13:54.151Z,19.50
2022-08-19T05:19:16.094Z,18.40
2022-08-19T05:24:20.395Z,17.50
2022-08-19T05:29:26.364Z,17.50
2022-08-19T05:34:39.523Z,18.30
2022-08-19T05:39:43.156Z,18.10
2022-08-19T05:44:46.206Z,17.60
2022-08-19T05:49:51.208Z,17.80
2022-08-19T05:54:57.024Z,17.20
2022-08-19T06:00:02.878Z,17.80
2022-08-19T06:05:10.065Z,18.10
2022-08-19T06:10:13.195Z,17.20
2022-08-19T06:15:16.994Z,17.40
2022-08-19T06:20:39.888Z,17.60
2022-08-19T06:25:44.995Z,17.60
2022-08-19T06:30:47.999Z,17.20
2022-08-19T06:35:51.092Z,17.10
2022-08-19T06:41:07.428Z,18.10
2022-08-19T06:46:17.495Z,16.40
2022-08-19T06:51:21.713Z,15.10
2022-08-19T06:56:34.782Z,15.60
2022-08-19T07:01:48.225Z,13.90
2022-08-19T07:06:57.788Z,14.10
2022-08-19T07:12:02.514Z,14.30
2022-08-19T07:17:13.692Z,13.30
2022-08-19T07:22:17.356Z,14.00
2022-08-19T07:27:22.520Z,13.30
2022-08-19T07:32:28.187Z,13.50
2022-08-19T07:37:33.385Z,14.40
2022-08-19T07:42:37.724Z,13.30
2022-08-19T07:47:48.058Z,13.50
2022-08-19T07:52:54.090Z,13.90
2022-08-19T07:57:57.134Z,14.70
2022-08-19T08:03:00.344Z,15.50
2022-08-19T08:08:22.490Z,15.70
2022-08-19T08:13:31.076Z,16.20
2022-08-19T08:18:42.518Z,15.60
2022-08-19T08:23:45.659Z,16.50
2022-08-19T08:28:49.657Z,16.00
2022-08-19T08:33:53.116Z,16.30
2022-08-19T08:44:05.925Z,15.50
2022-08-19T08:49:25.336Z,15.70
2022-08-19T08:54:48.792Z,15.40
2022-08-19T08:59:56.104Z,14.30
2022-08-19T09:04:59.627Z,16.10
2022-08-19T09:10:44.408Z,13.50
2022-08-19T09:15:56.992Z,14.90
2022-08-19T09:26:22.275Z,15.40
2022-08-19T09:31:29.589Z,14.80
2022-08-19T09:36:35.347Z,13.50
2022-08-19T09:41:38.834Z,14.50
2022-08-19T09:46:52.309Z,11.50
2022-08-19T09:51:57.177Z,12.70
2022-08-19T09:57:01.565Z,12.20
2022-08-19T10:02:10.838Z,13.00
2022-08-19T10:07:14.433Z,13.00
2022-08-19T10:12:17.829Z,11.70
2022-08-19T10:17:26.779Z,12.00
2022-08-19T10:22:36.907Z,13.20
2022-08-19T10:27:40.011Z,13.00
2022-08-19T10:32:46.340Z,13.90
2022-08-19T10:37:57.230Z,13.80
2022-08-19T10:43:00.973Z,13.50
2022-08-19T10:48:04.726Z,13.80
2022-08-19T10:53:09.912Z,12.00
2022-08-19T10:58:16.190Z,12.80
2022-08-19T11:03:19.767Z,13.10
2022-08-19T11:08:24.155Z,11.70
2022-08-19T11:13:34.601Z,12.50
2022-08-19T11:18:43.830Z,10.80
2022-08-19T11:23:53.507Z,12.20
2022-08-19T11:28:58.276Z,11.50
2022-08-19T11:34:04.273Z,12.10
2022-08-19T11:39:09.241Z,11.10
2022-08-19T11:44:15.137Z,11.20
2022-08-19T11:49:20.694Z,11.80
2022-08-19T11:54:23.748Z,10.40
2022-08-19T11:59:28.047Z,11.30
2022-08-19T12:04:32.799Z,11.70
2022-08-19T12:09:36.222Z,11.00
2022-08-19T12:14:39.719Z,10.70
2022-08-19T12:19:42.760Z,11.40
2022-08-19T12:24:45.809Z,10.40
2022-08-19T12:29:49.858Z,11.10
2022-08-19T12:34:52.890Z,10.50
2022-08-19T12:39:56.022Z,11.10
2022-08-19T12:44:59.231Z,10.80
2022-08-19T12:50:06.899Z,10.80
2022-08-19T12:55:12.665Z,10.70
2022-08-19T13:00:22.223Z,11.60
2022-08-19T13:05:30.360Z,11.40
2022-08-19T13:10:36.169Z,10.30
2022-08-19T13:15:43.114Z,10.10
2022-08-19T13:20:52.687Z,10.40
2022-08-19T13:26:06.851Z,10.10
2022-08-19T13:31:28.311Z,10.80
2022-08-19T13:36:31.424Z,10.60
2022-08-19T13:41:35.505Z,9.80
2022-08-19T13:46:38.559Z,10.10
2022-08-19T13:51:43.026Z,10.20
2022-08-19T13:56:46.893Z,10.60
2022-08-19T14:01:49.914Z,10.30
2022-08-19T14:06:52.959Z,9.40
2022-08-19T14:11:56.501Z,9.80
2022-08-19T14:16:59.476Z,10.00
2022-08-19T14:22:02.534Z,9.80
2022-08-19T14:27:05.813Z,9.50
2022-08-19T14:32:08.933Z,9.80
2022-08-19T14:37:16.232Z,10.50
2022-08-19T14:42:20.265Z,8.90
2022-08-19T14:47:23.326Z,9.70
2022-08-19T14:52:27.085Z,9.20
2022-08-19T14:57:30.154Z,9.80
2022-08-19T15:02:34.484Z,9.50
2022-08-19T15:07:39.435Z,8.50
2022-08-19T15:12:43.977Z,9.50
2022-08-19T15:17:47.638Z,9.50
2022-08-19T15:22:51.029Z,9.20
2022-08-19T15:27:55.037Z,9.10
2022-08-19T15:32:59.226Z,9.20
2022-08-19T15:38:02.327Z,9.60
2022-08-19T15:43:05.365Z,10.00
2022-08-19T15:48:09.038Z,9.00
2022-08-19T15:53:13.161Z,9.90
2022-08-19T15:58:35.150Z,9.80
2022-08-19T16:03:56.664Z,9.60
2022-08-19T16:09:03.329Z,8.90
2022-08-19T16:14:08.722Z,9.70
2022-08-19T16:19:12.819Z,9.60
2022-08-19T16:24:19.408Z,9.20
2022-08-19T16:29:34.783Z,10.20
2022-08-19T16:34:42.951Z,10.40
2022-08-19T16:39:45.986Z,10.20
2022-08-19T16:44:49.170Z,10.00
2022-08-19T16:49:55.210Z,9.50
2022-08-19T16:54:58.669Z,10.20
2022-08-19T17:00:08.918Z,10.70
2022-08-19T17:05:11.987Z,10.50
2022-08-19T17:10:15.050Z,8.90
2022-08-19T17:15:18.127Z,9.60
2022-08-19T17:20:21.655Z,8.60
2022-08-19T17:25:27.241Z,9.60
2022-08-19T17:30:32.086Z,8.60
2022-08-19T17:35:36.045Z,8.20
2022-08-19T17:40:42.479Z,8.80
2022-08-19T17:45:46.779Z,9.50
2022-08-19T17:50:51.732Z,10.00
2022-08-19T17:55:54.749Z,8.60
2022-08-19T18:01:00.887Z,9.70
2022-08-19T18:06:04.135Z,10.00
2022-08-19T18:11:09.564Z,10.00
2022-08-19T18:16:13.612Z,10.80
2022-08-19T18:21:17.090Z,11.20
2022-08-19T18:26:20.477Z,9.80
2022-08-19T18:31:24.090Z,9.60
2022-08-19T18:36:52.619Z,9.50
2022-08-19T18:42:11.335Z,9.80
2022-08-19T18:47:32.917Z,9.60
2022-08-19T18:52:37.221Z,10.30
2022-08-19T18:57:40.207Z,10.30
2022-08-19T19:02:46.632Z,9.80
2022-08-19T19:07:50.709Z,10.00
2022-08-19T19:12:53.806Z,9.80
2022-08-19T19:17:56.891Z,9.70
2022-08-19T19:23:04.555Z,11.00
2022-08-19T19:28:07.586Z,10.10
2022-08-19T19:33:14.124Z,9.10
2022-08-19T19:38:17.113Z,9.50
2022-08-19T19:43:20.147Z,9.80
2022-08-19T19:48:25.028Z,9.40
2022-08-19T19:53:30.147Z,9.90
2022-08-19T19:58:36.576Z,9.40
2022-08-19T20:03:40.997Z,9.10
2022-08-19T20:09:03.960Z,8.90
2022-08-19T20:14:29.282Z,9.00
2022-08-19T20:19:37.503Z,8.70
2022-08-19T20:24:42.546Z,8.80
2022-08-19T20:29:46.484Z,8.80
2022-08-19T20:34:51.821Z,9.30
2022-08-19T20:39:54.942Z,9.30
2022-08-19T20:44:58.057Z,9.00
2022-08-19T20:50:01.951Z,9.30
2022-08-19T20:55:05.611Z,8.60
2022-08-19T21:00:13.519Z,8.90
2022-08-19T21:05:16.555Z,9.10
2022-08-19T21:10:19.719Z,9.20
2022-08-19T21:15:24.741Z,8.00
2022-08-19T21:20:27.688Z,9.20
2022-08-19T21:25:30.768Z,8.30
2022-08-19T21:30:34.667Z,8.70
2022-08-19T21:35:39.693Z,8.20
2022-08-19T21:40:42.710Z,8.90
2022-08-19T21:45:47.709Z,8.90
2022-08-19T21:50:51.139Z,9.60
2022-08-19T21:55:54.140Z,8.50
2022-08-19T22:00:57.832Z,9.10
2022-08-19T22:06:01.779Z,9.00
2022-08-19T22:11:05.011Z,9.10
2022-08-19T22:16:09.765Z,9.50
2022-08-19T22:21:13.451Z,10.30
2022-08-19T22:26:18.008Z,9.40
2022-08-19T22:31:21.080Z,9.40
2022-08-19T22:36:24.750Z,9.30
2022-08-19T22:41:27.955Z,9.10
2022-08-19T22:46:33.817Z,9.40
2022-08-19T22:51:55.305Z,9.30
2022-08-19T22:56:58.291Z,9.00
2022-08-19T23:02:01.318Z,8.70
2022-08-19T23:07:06.025Z,9.70
2022-08-19T23:12:10.286Z,9.50
2022-08-19T23:17:14.339Z,9.50
2022-08-19T23:22:19.221Z,9.50
2022-08-19T23:27:46.545Z,9.20
2022-08-19T23:32:49.556Z,13.90
2022-08-19T23:37:52.708Z,11.20
2022-08-19T23:42:55.883Z,10.30
2022-08-19T23:47:59.245Z,9.30
2022-08-19T23:53:02.784Z,10.90
2022-08-19T23:58:07.970Z,10.50
